Time;durP1;ratioP1;P1;durP2;ratioP2;P2;SDS_P1;SDS_P2;PMS_P1;PMS_P2;Temp;Humidity;BMP_temperature;BMP_pressure;BME280_temperature;BME280_humidity;BME280_pressure;Samples;Min_cycle;Max_cycle;Signal;HPM_P1;HPM_P2
2022/07/13 00:00:41;;;;;;;8.02;6.43;;;20.10;99.90;;;;;;5005049;28;20373;-93
2022/07/13 00:03:07;;;;;;;8.05;6.95;;;20.00;99.90;;;;;;4989622;28;20054;-92
2022/07/13 00:05:33;;;;;;;9.65;7.18;;;20.00;99.90;;;;;;4954751;28;20050;-92
2022/07/13 00:07:59;;;;;;;8.60;7.65;;;20.00;99.90;;;;;;5035458;28;20482;-92
2022/07/13 00:10:25;;;;;;;8.23;7.28;;;19.90;99.90;;;;;;4988830;28;20405;-92
2022/07/13 00:12:51;;;;;;;10.18;7.30;;;19.90;99.90;;;;;;4970570;28;20042;-90
2022/07/13 00:15:17;;;;;;;9.32;6.43;;;20.00;99.90;;;;;;4988370;28;20045;-90
2022/07/13 00:17:44;;;;;;;7.75;7.07;;;20.00;99.90;;;;;;4959083;28;20408;-90
2022/07/13 00:20:10;;;;;;;8.77;7.78;;;19.90;99.90;;;;;;4972845;28;20046;-91
2022/07/13 00:22:37;;;;;;;14.88;7.57;;;20.00;99.90;;;;;;5005925;28;20104;-91
2022/07/13 00:25:03;;;;;;;10.13;8.15;;;19.90;99.90;;;;;;4987537;28;20052;-91
2022/07/13 00:27:29;;;;;;;8.73;7.97;;;20.00;99.90;;;;;;5008017;28;20042;-92
2022/07/13 00:29:55;;;;;;;10.82;9.73;;;20.00;99.90;;;;;;4991591;28;20050;-91
2022/07/13 00:32:22;;;;;;;9.23;8.32;;;19.90;99.90;;;;;;4992317;28;20578;-92
2022/07/13 00:34:48;;;;;;;10.35;9.32;;;20.00;99.90;;;;;;4975482;28;20099;-92
2022/07/13 00:37:15;;;;;;;10.05;9.05;;;20.00;99.90;;;;;;4993469;28;20050;-92
2022/07/13 00:39:41;;;;;;;10.50;9.40;;;20.00;99.90;;;;;;4981715;28;20476;-92
2022/07/13 00:42:08;;;;;;;10.15;9.15;;;20.00;99.90;;;;;;5034674;28;20058;-91
2022/07/13 00:44:36;;;;;;;10.25;9.07;;;20.00;99.90;;;;;;4972766;28;20572;-92
2022/07/13 00:47:03;;;;;;;10.15;9.13;;;20.00;99.90;;;;;;5026901;28;20057;-92
2022/07/13 00:49:31;;;;;;;9.85;8.85;;;19.90;99.90;;;;;;5012311;28;20029;-92
2022/07/13 00:51:57;;;;;;;11.68;10.00;;;19.90;99.90;;;;;;5009150;28;20111;-91
2022/07/13 00:54:33;;;;;;;10.40;9.15;;;20.00;99.90;;;;;;5026269;28;20106;-91
2022/07/13 00:57:01;;;;;;;11.57;9.73;;;19.90;99.90;;;;;;4994555;28;20021;-91
2022/07/13 00:59:27;;;;;;;10.68;9.40;;;20.00;99.90;;;;;;4983676;28;20073;-91
2022/07/13 01:01:54;;;;;;;14.20;10.85;;;20.00;99.90;;;;;;4989452;28;20041;-92
2022/07/13 01:04:23;;;;;;;11.38;10.30;;;20.00;99.90;;;;;;4973954;28;20052;-92
2022/07/13 01:06:55;;;;;;;10.93;8.77;;;20.00;99.90;;;;;;5000256;28;20061;-92
2022/07/13 01:09:25;;;;;;;9.65;8.85;;;19.90;99.90;;;;;;4989795;28;20042;-92
2022/07/13 01:11:53;;;;;;;10.27;9.27;;;20.00;99.90;;;;;;4987715;28;20049;-92
2022/07/13 01:14:19;;;;;;;10.77;9.77;;;19.90;99.90;;;;;;4987639;28;20104;-91
2022/07/13 01:16:46;;;;;;;10.18;8.77;;;19.90;99.90;;;;;;5004780;28;20037;-92
2022/07/13 01:19:16;;;;;;;9.63;8.73;;;19.90;99.90;;;;;;4956101;28;20104;-90
2022/07/13 01:21:48;;;;;;;10.40;9.40;;;19.90;99.90;;;;;;4991163;28;20057;-92
2022/07/13 01:24:15;;;;;;;10.30;9.40;;;20.00;99.90;;;;;;5004251;28;20057;-92
2022/07/13 01:26:42;;;;;;;9.75;8.85;;;19.90;99.90;;;;;;5004905;28;20611;-91
2022/07/13 01:29:11;;;;;;;10.00;9.07;;;20.00;99.90;;;;;;4987722;28;20509;-92
2022/07/13 01:31:39;;;;;;;9.40;8.50;;;19.90;99.90;;;;;;4968925;28;20414;-92
2022/07/13 01:34:07;;;;;;;13.13;8.32;;;19.90;99.90;;;;;;4988917;28;20394;-91
2022/07/13 01:36:35;;;;;;;13.63;9.57;;;19.90;99.90;;;;;;5002117;28;20054;-92
2022/07/13 01:39:02;;;;;;;10.05;9.15;;;19.90;99.90;;;;;;4978015;28;20145;-91
2022/07/13 01:41:29;;;;;;;11.15;9.10;;;19.90;99.90;;;;;;4973732;28;20054;-91
2022/07/13 01:43:59;;;;;;;9.80;8.77;;;19.90;99.90;;;;;;5001697;28;20409;-92
2022/07/13 01:46:29;;;;;;;10.98;9.73;;;19.80;99.90;;;;;;4987023;28;20050;-92
2022/07/13 01:48:58;;;;;;;10.98;9.93;;;19.80;99.90;;;;;;5004441;28;20046;-92
2022/07/13 01:51:24;;;;;;;13.13;9.88;;;19.70;99.90;;;;;;4969654;28;20425;-92
2022/07/13 01:53:51;;;;;;;9.52;8.55;;;19.70;99.90;;;;;;4985931;28;20093;-92
2022/07/13 01:56:20;;;;;;;9.95;9.02;;;19.70;99.90;;;;;;4993493;28;20618;-92
2022/07/13 01:58:47;;;;;;;10.70;9.65;;;19.70;99.90;;;;;;4973563;28;20489;-92
2022/07/13 02:01:16;;;;;;;10.60;9.60;;;19.70;99.90;;;;;;4991455;28;20152;-92
2022/07/13 02:03:44;;;;;;;11.52;10.00;;;19.70;99.90;;;;;;4989389;28;20042;-91
2022/07/13 02:06:11;;;;;;;10.93;9.93;;;19.70;99.90;;;;;;5039253;28;20060;-92
2022/07/13 02:08:38;;;;;;;9.60;8.65;;;19.70;99.90;;;;;;4990884;28;20065;-91
2022/07/13 02:11:06;;;;;;;12.35;10.55;;;19.70;99.90;;;;;;4974259;28;20081;-92
2022/07/13 02:13:32;;;;;;;10.88;9.88;;;19.70;99.90;;;;;;4993600;28;20076;-93
2022/07/13 02:15:58;;;;;;;11.88;9.80;;;19.70;99.90;;;;;;4978333;28;20037;-92
2022/07/13 02:18:25;;;;;;;11.88;10.15;;;19.70;99.90;;;;;;4994132;28;20401;-92
2022/07/13 02:20:51;;;;;;;9.95;8.95;;;19.70;99.90;;;;;;4994301;28;20100;-92
2022/07/13 02:23:18;;;;;;;10.35;9.45;;;19.70;99.90;;;;;;4989197;28;20080;-92
2022/07/13 02:25:44;;;;;;;11.40;10.23;;;19.70;99.90;;;;;;4979435;28;20045;-91
2022/07/13 02:28:17;;;;;;;10.40;9.23;;;19.70;99.90;;;;;;4992894;28;20155;-91
2022/07/13 02:30:44;;;;;;;10.07;9.07;;;19.70;99.90;;;;;;5025118;28;20050;-90
2022/07/13 02:33:23;;;;;;;12.20;11.10;;;19.70;99.90;;;;;;5007457;28;20149;-92
2022/07/13 02:35:49;;;;;;;11.25;10.23;;;19.80;99.90;;;;;;4980131;28;20516;-91
2022/07/13 02:38:22;;;;;;;11.13;10.02;;;19.70;99.90;;;;;;5025148;28;20068;-92
2022/07/13 02:40:56;;;;;;;11.07;10.07;;;19.80;99.90;;;;;;5007196;28;20045;-92
2022/07/13 02:43:24;;;;;;;12.02;11.02;;;19.70;99.90;;;;;;4991306;28;20374;-91
2022/07/13 02:46:09;;;;;;;12.77;11.45;;;19.60;99.90;;;;;;5006379;28;20386;-93
2022/07/13 02:48:38;;;;;;;13.05;11.85;;;19.60;99.90;;;;;;4991155;28;20049;-91
2022/07/13 02:51:05;;;;;;;12.35;10.32;;;19.60;99.90;;;;;;4991155;28;20077;-92
2022/07/13 02:53:31;;;;;;;11.68;10.38;;;19.60;99.90;;;;;;4990472;28;20053;-92
2022/07/13 02:55:59;;;;;;;11.80;10.63;;;19.60;99.90;;;;;;5008105;28;20069;-92
2022/07/13 02:58:27;;;;;;;12.25;11.05;;;19.60;99.90;;;;;;4960754;28;20560;-92
2022/07/13 03:00:53;;;;;;;13.45;12.05;;;19.60;99.90;;;;;;4992256;28;20100;-91
2022/07/13 03:03:19;;;;;;;12.07;10.90;;;19.60;99.90;;;;;;5036788;28;20049;-90
2022/07/13 03:05:47;;;;;;;12.45;11.35;;;19.50;99.90;;;;;;5012839;28;20045;-92
2022/07/13 03:08:13;;;;;;;12.32;11.23;;;19.50;99.90;;;;;;5011536;28;20053;-91
2022/07/13 03:10:40;;;;;;;12.10;10.90;;;19.50;99.90;;;;;;4976776;28;20060;-92
2022/07/13 03:13:07;;;;;;;12.80;11.48;;;19.50;99.90;;;;;;5010225;28;20038;-91
2022/07/13 03:15:33;;;;;;;12.35;11.15;;;19.60;99.90;;;;;;5026616;28;20082;-92
2022/07/13 03:18:00;;;;;;;12.98;11.77;;;19.50;99.90;;;;;;4995837;28;20120;-92
2022/07/13 03:20:27;;;;;;;12.85;11.65;;;19.60;99.90;;;;;;5010113;28;20468;-92
2022/07/13 03:22:54;;;;;;;12.75;11.65;;;19.60;99.90;;;;;;4963898;28;20042;-91
2022/07/13 03:25:26;;;;;;;12.73;11.63;;;19.60;99.90;;;;;;4962740;28;20496;-92
2022/07/13 03:27:55;;;;;;;13.15;11.90;;;19.60;99.90;;;;;;4978731;28;20050;-93
2022/07/13 03:30:21;;;;;;;14.43;13.13;;;19.60;99.90;;;;;;4980443;28;20046;-93
2022/07/13 03:32:48;;;;;;;14.57;13.23;;;19.60;99.90;;;;;;4995616;28;20362;-91
2022/07/13 03:35:15;;;;;;;12.20;11.00;;;19.60;99.90;;;;;;4978842;28;20026;-93
2022/07/13 03:37:45;;;;;;;13.13;11.85;;;19.60;99.90;;;;;;4962003;28;20121;-92
2022/07/13 03:40:13;;;;;;;14.15;11.52;;;19.60;99.90;;;;;;4991338;28;20045;-92
2022/07/13 03:42:40;;;;;;;12.40;11.30;;;19.60;99.90;;;;;;5023042;28;20443;-92
2022/07/13 03:45:07;;;;;;;14.95;11.98;;;19.60;99.90;;;;;;5018076;28;20393;-91
2022/07/13 03:47:34;;;;;;;12.18;11.07;;;19.60;99.90;;;;;;5000342;28;20049;-92
2022/07/13 03:50:08;;;;;;;12.50;11.32;;;19.60;99.90;;;;;;4975538;28;20128;-92
2022/07/13 03:52:45;;;;;;;12.23;10.90;;;19.60;99.90;;;;;;4958746;28;20054;-92
2022/07/13 03:55:14;;;;;;;12.48;11.32;;;19.60;99.90;;;;;;4973494;28;20084;-92
2022/07/13 03:57:41;;;;;;;12.15;11.05;;;19.60;99.90;;;;;;4974291;28;20046;-91
2022/07/13 04:00:08;;;;;;;11.30;10.38;;;19.70;99.90;;;;;;4991158;28;20046;-92
2022/07/13 04:02:45;;;;;;;11.68;10.57;;;19.60;99.90;;;;;;5033397;28;20065;-92
2022/07/13 04:05:16;;;;;;;11.43;10.30;;;19.70;99.90;;;;;;4974339;28;20129;-91
2022/07/13 04:07:49;;;;;;;10.82;9.82;;;19.70;99.90;;;;;;4960049;28;20038;-91
2022/07/13 04:10:21;;;;;;;11.88;10.70;;;19.70;99.90;;;;;;4989096;28;20041;-91
2022/07/13 04:12:49;;;;;;;11.63;10.52;;;19.60;99.90;;;;;;4958868;28;20053;-91
2022/07/13 04:15:16;;;;;;;14.35;11.60;;;19.70;99.90;;;;;;5005960;28;20042;-92
2022/07/13 04:17:43;;;;;;;11.60;10.07;;;19.70;99.90;;;;;;4954796;28;20043;-91
2022/07/13 04:20:11;;;;;;;11.25;10.20;;;19.70;99.90;;;;;;4988366;28;20050;-91
2022/07/13 04:22:47;;;;;;;10.73;9.75;;;19.70;99.90;;;;;;5009538;28;20511;-91
2022/07/13 04:25:21;;;;;;;11.07;10.00;;;19.70;99.90;;;;;;4980829;28;20048;-91
2022/07/13 04:27:48;;;;;;;10.73;9.73;;;19.70;99.90;;;;;;5021263;28;20052;-91
2022/07/13 04:30:14;;;;;;;11.05;9.95;;;19.80;99.90;;;;;;4987867;28;20073;-91
2022/07/13 04:32:41;;;;;;;13.48;9.40;;;19.80;99.90;;;;;;4972575;28;20045;-91
2022/07/13 04:35:08;;;;;;;11.50;9.40;;;19.80;99.90;;;;;;4956994;28;20398;-91
2022/07/13 04:37:38;;;;;;;14.38;10.00;;;19.80;99.90;;;;;;5004291;28;20038;-91
2022/07/13 04:40:05;;;;;;;10.68;9.57;;;19.80;99.90;;;;;;4995288;28;20042;-91
2022/07/13 04:42:33;;;;;;;11.77;10.68;;;19.90;99.90;;;;;;4987332;28;20045;-92
2022/07/13 04:45:00;;;;;;;13.05;9.93;;;19.90;99.90;;;;;;4955858;28;20069;-91
2022/07/13 04:47:26;;;;;;;10.10;9.07;;;19.90;99.90;;;;;;5003996;28;20085;-91
2022/07/13 04:49:53;;;;;;;10.75;9.77;;;19.90;99.90;;;;;;4998198;28;20056;-91
2022/07/13 04:52:19;;;;;;;9.40;8.45;;;20.00;99.90;;;;;;5021144;28;20105;-91
2022/07/13 04:54:47;;;;;;;10.45;9.35;;;20.00;99.90;;;;;;4989818;28;20038;-92
2022/07/13 04:57:13;;;;;;;8.80;8.00;;;20.00;99.90;;;;;;4968773;28;20046;-92
2022/07/13 04:59:40;;;;;;;10.48;9.20;;;20.00;99.90;;;;;;4972571;28;20108;-91
2022/07/13 05:02:07;;;;;;;9.95;9.05;;;20.10;99.90;;;;;;5007065;28;20081;-91
2022/07/13 05:04:34;;;;;;;9.82;8.43;;;20.20;99.90;;;;;;5007779;28;20068;-91
2022/07/13 05:07:00;;;;;;;10.00;9.00;;;20.20;99.90;;;;;;4990611;28;20099;-91
2022/07/13 05:09:28;;;;;;;9.25;8.32;;;20.30;99.90;;;;;;5039532;28;20084;-92
2022/07/13 05:11:56;;;;;;;9.90;8.32;;;20.40;99.90;;;;;;5004104;28;20026;-84
2022/07/13 05:14:22;;;;;;;8.60;7.80;;;20.40;99.90;;;;;;5035562;28;20060;-84
2022/07/13 05:16:51;;;;;;;9.50;7.35;;;20.50;99.90;;;;;;4981138;28;20417;-85
2022/07/13 05:19:18;;;;;;;8.15;7.18;;;20.60;99.90;;;;;;5020021;28;20054;-85
2022/07/13 05:21:44;;;;;;;9.90;7.82;;;20.60;99.90;;;;;;4970816;28;20120;-86
2022/07/13 05:24:12;;;;;;;42.67;38.60;;;20.70;99.90;;;;;;4953765;28;20140;-85
2022/07/13 05:26:39;;;;;;;22.38;20.17;;;20.90;99.90;;;;;;5000179;28;20089;-85
2022/07/13 05:29:06;;;;;;;32.08;29.02;;;20.90;99.90;;;;;;4984678;28;20476;-86
2022/07/13 05:31:33;;;;;;;17.23;15.63;;;21.00;99.90;;;;;;5007903;28;20049;-84
2022/07/13 05:34:01;;;;;;;9.90;8.93;;;21.00;99.90;;;;;;5009867;28;20401;-85
2022/07/13 05:36:31;;;;;;;9.88;8.88;;;21.20;99.90;;;;;;5008179;28;20042;-84
2022/07/13 05:38:58;;;;;;;9.95;8.57;;;21.20;99.90;;;;;;5004766;28;20045;-86
2022/07/13 05:41:24;;;;;;;8.23;6.68;;;21.40;99.90;;;;;;4992527;28;20551;-85
2022/07/13 05:43:51;;;;;;;8.82;7.63;;;21.40;99.90;;;;;;5004557;28;20161;-86
2022/07/13 05:46:17;;;;;;;12.68;8.95;;;21.50;99.90;;;;;;4971392;28;20038;-85
2022/07/13 05:48:44;;;;;;;7.57;6.47;;;21.60;99.90;;;;;;4975451;28;20077;-86
2022/07/13 05:51:11;;;;;;;16.20;14.57;;;21.60;99.90;;;;;;5024290;28;20060;-85
2022/07/13 05:53:38;;;;;;;88.97;80.40;;;21.70;99.90;;;;;;5008464;28;20886;-84
2022/07/13 05:56:04;;;;;;;38.72;35.00;;;21.80;99.90;;;;;;4994990;28;20041;-86
2022/07/13 05:58:31;;;;;;;48.95;44.05;;;21.80;99.90;;;;;;4988126;28;20053;-87
2022/07/13 06:00:57;;;;;;;16.50;14.07;;;21.90;99.90;;;;;;4974352;28;20415;-85
2022/07/13 06:03:23;;;;;;;21.33;19.38;;;22.00;99.90;;;;;;5003275;28;20402;-84
2022/07/13 06:05:49;;;;;;;15.85;14.30;;;22.00;99.90;;;;;;4989510;28;20041;-86
2022/07/13 06:08:15;;;;;;;9.32;6.82;;;22.20;99.90;;;;;;5007429;28;20131;-86
2022/07/13 06:10:42;;;;;;;9.80;7.85;;;22.20;99.90;;;;;;4989161;28;20122;-86
2022/07/13 06:13:08;;;;;;;12.95;10.30;;;22.40;99.90;;;;;;4993574;28;20045;-86
2022/07/13 06:15:34;;;;;;;9.40;8.45;;;22.40;99.90;;;;;;4987054;28;20572;-86
2022/07/13 06:18:00;;;;;;;14.65;11.57;;;22.50;99.90;;;;;;5003010;28;20046;-86
2022/07/13 06:20:27;;;;;;;10.27;7.25;;;22.60;99.90;;;;;;5009042;28;20050;-86
2022/07/13 06:23:11;;;;;;;7.97;6.38;;;22.60;99.90;;;;;;4978218;28;20044;-86
2022/07/13 06:25:43;;;;;;;10.13;7.90;;;22.70;99.90;;;;;;4999667;28;20072;-86
2022/07/13 06:28:10;;;;;;;5.57;4.78;;;23.00;99.90;;;;;;4983736;28;20659;-86
2022/07/13 06:30:36;;;;;;;8.82;6.22;;;23.20;99.90;;;;;;4992390;28;20046;-86
2022/07/13 06:33:03;;;;;;;15.45;11.88;;;23.40;99.90;;;;;;4984335;28;20536;-87
2022/07/13 06:35:30;;;;;;;6.90;4.40;;;23.60;99.90;;;;;;5025338;28;20053;-86
2022/07/13 06:37:56;;;;;;;6.63;4.28;;;23.70;99.90;;;;;;5001113;28;20045;-87
2022/07/13 06:40:23;;;;;;;7.88;4.75;;;23.90;99.90;;;;;;4983048;28;20523;-87
2022/07/13 06:42:49;;;;;;;31.70;28.50;;;24.00;99.90;;;;;;5000279;28;20053;-87
2022/07/13 06:45:16;;;;;;;5.93;4.40;;;24.10;99.90;;;;;;4980294;28;20073;-86
2022/07/13 06:47:42;;;;;;;6.07;4.25;;;24.20;99.90;;;;;;5015267;28;20146;-85
2022/07/13 06:50:11;;;;;;;5.18;4.68;;;24.40;99.90;;;;;;4984111;28;20056;-85
2022/07/13 06:52:40;;;;;;;5.50;4.28;;;24.80;99.90;;;;;;4995450;28;20406;-86
2022/07/13 06:55:08;;;;;;;26.20;23.65;;;25.00;99.90;;;;;;5012520;28;20122;-86
2022/07/13 06:57:34;;;;;;;10.93;9.45;;;25.10;99.90;;;;;;4984481;28;20350;-86
2022/07/13 07:00:01;;;;;;;6.47;5.13;;;25.40;99.90;;;;;;4954044;28;20046;-86
2022/07/13 07:02:27;;;;;;;9.27;7.13;;;25.80;99.90;;;;;;5020348;28;20516;-87
2022/07/13 07:04:54;;;;;;;6.30;4.18;;;26.40;99.90;;;;;;4984866;28;20042;-86
2022/07/13 07:07:21;;;;;;;6.65;5.10;;;26.50;99.90;;;;;;5015091;28;20061;-86
2022/07/13 07:09:47;;;;;;;6.78;4.38;;;26.60;99.90;;;;;;4977620;28;20046;-85
2022/07/13 07:12:14;;;;;;;8.45;4.93;;;27.10;99.90;;;;;;5021641;28;20049;-86
2022/07/13 07:14:40;;;;;;;6.82;5.25;;;27.20;99.90;;;;;;4969257;28;20122;-86
2022/07/13 07:17:06;;;;;;;15.40;14.00;;;27.00;99.90;;;;;;5015992;28;20074;-85
2022/07/13 07:19:32;;;;;;;8.30;6.85;;;26.40;99.90;;;;;;5019818;28;20057;-87
2022/07/13 07:21:59;;;;;;;7.28;6.57;;;26.10;99.90;;;;;;4968694;28;20136;-86
2022/07/13 07:24:25;;;;;;;7.63;6.90;;;25.70;99.90;;;;;;5035232;28;20050;-88
2022/07/13 07:26:52;;;;;;;9.50;7.32;;;25.30;99.90;;;;;;4954307;28;20472;-86
2022/07/13 07:29:18;;;;;;;10.02;6.93;;;25.10;99.90;;;;;;4954258;28;20179;-87
2022/07/13 07:31:44;;;;;;;7.88;6.45;;;25.10;99.90;;;;;;4987673;28;20092;-87
2022/07/13 07:34:11;;;;;;;8.25;7.03;;;24.90;99.90;;;;;;5004135;28;20045;-86
2022/07/13 07:36:37;;;;;;;7.85;6.85;;;24.80;99.90;;;;;;4985651;28;20042;-87
2022/07/13 07:39:03;;;;;;;6.80;6.10;;;24.70;99.90;;;;;;4991916;28;20046;-87
2022/07/13 07:41:30;;;;;;;7.30;6.55;;;24.70;99.90;;;;;;4986806;28;20065;-87
2022/07/13 07:43:56;;;;;;;7.90;7.13;;;24.70;99.90;;;;;;4996904;28;20413;-87
2022/07/13 07:46:23;;;;;;;8.80;7.72;;;24.80;99.90;;;;;;4968978;28;20049;-87
2022/07/13 07:48:49;;;;;;;9.80;7.45;;;24.70;99.90;;;;;;5017361;28;20045;-86
2022/07/13 07:51:16;;;;;;;8.35;7.45;;;24.70;99.90;;;;;;4988557;28;20050;-86
2022/07/13 07:53:43;;;;;;;10.45;7.85;;;24.70;99.90;;;;;;5023241;28;20109;-86
2022/07/13 07:56:10;;;;;;;8.98;7.93;;;24.70;99.90;;;;;;4987206;28;20130;-86
2022/07/13 07:58:36;;;;;;;9.98;8.40;;;24.80;99.90;;;;;;4987043;28;20125;-86
2022/07/13 08:01:02;;;;;;;9.27;7.90;;;24.80;99.90;;;;;;4986778;28;20499;-87
2022/07/13 08:03:28;;;;;;;9.73;8.35;;;25.10;99.90;;;;;;4970795;28;20052;-87
2022/07/13 08:05:57;;;;;;;10.35;8.43;;;25.70;99.90;;;;;;5005612;28;20037;-87
2022/07/13 08:08:23;;;;;;;10.73;7.82;;;26.10;99.90;;;;;;4984645;28;20459;-86
2022/07/13 08:10:50;;;;;;;9.18;8.25;;;26.50;99.90;;;;;;5036036;28;20132;-87
2022/07/13 08:13:16;;;;;;;10.77;8.48;;;26.80;99.90;;;;;;4992491;28;20416;-87
2022/07/13 08:15:42;;;;;;;9.23;8.32;;;27.00;99.90;;;;;;5021243;28;20050;-87
2022/07/13 08:18:09;;;;;;;8.90;8.00;;;27.10;99.90;;;;;;5015387;28;20366;-87
2022/07/13 08:20:36;;;;;;;9.23;8.32;;;27.30;99.90;;;;;;4976436;28;20076;-86
2022/07/13 08:23:50;;;;;;;9.50;7.88;;;27.10;99.90;;;;;;4974761;28;20500;-87
2022/07/13 08:25:49;;;;;;;9.02;8.07;;;27.20;99.90;;;;;;5000361;28;20172;-87
2022/07/13 08:28:15;;;;;;;10.23;7.25;;;27.50;99.90;;;;;;5018086;28;20436;-87
2022/07/13 08:30:41;;;;;;;8.43;7.63;;;27.80;99.90;;;;;;5007310;28;20049;-88
2022/07/13 08:33:07;;;;;;;8.07;7.15;;;28.00;99.90;;;;;;4958808;28;20042;-87
2022/07/13 08:38:35;;;;;;;9.40;8.50;;;28.20;99.90;;;;;;4984571;28;20042;-85
2022/07/13 08:41:02;;;;;;;9.98;8.07;;;28.60;99.90;;;;;;4996093;28;20477;-86
2022/07/13 08:43:28;;;;;;;10.77;8.02;;;28.50;99.90;;;;;;4994904;28;20518;-86
2022/07/13 08:45:54;;;;;;;11.98;7.45;;;28.70;99.90;;;;;;4985416;28;20525;-86
2022/07/13 08:48:29;;;;;;;8.52;7.70;;;28.80;99.90;;;;;;4969109;28;20046;-87
2022/07/13 08:50:55;;;;;;;8.73;7.15;;;28.70;99.90;;;;;;5002861;28;20058;-87
2022/07/13 08:53:22;;;;;;;8.40;7.50;;;28.80;99.90;;;;;;5021164;28;20046;-86
2022/07/13 08:55:49;;;;;;;7.80;7.00;;;29.00;99.90;;;;;;5001804;28;20049;-86
2022/07/13 08:58:16;;;;;;;9.10;6.95;;;29.30;99.90;;;;;;5002408;28;20631;-87
2022/07/13 09:00:43;;;;;;;8.98;7.07;;;29.50;99.90;;;;;;5016032;28;20092;-87
2022/07/13 09:03:10;;;;;;;7.95;6.70;;;29.50;99.90;;;;;;5020755;28;20038;-87
2022/07/13 09:05:39;;;;;;;7.32;6.53;;;29.60;99.90;;;;;;4997781;28;20048;-87
2022/07/13 09:08:08;;;;;;;8.67;7.03;;;29.70;99.90;;;;;;5004196;28;20373;-87
2022/07/13 09:10:53;;;;;;;8.85;6.53;;;29.60;99.90;;;;;;4987858;28;20411;-87
2022/07/13 09:13:39;;;;;;;7.35;5.40;;;29.70;99.90;;;;;;5017339;28;20607;-87
2022/07/13 09:16:23;;;;;;;7.38;6.60;;;29.80;99.90;;;;;;5004210;28;20143;-87
2022/07/13 09:18:51;;;;;;;6.75;6.00;;;29.80;99.90;;;;;;4983091;28;20050;-87
2022/07/13 09:21:21;;;;;;;7.50;6.00;;;30.00;99.90;;;;;;4968288;28;20132;-85
2022/07/13 09:23:49;;;;;;;7.80;5.22;;;30.10;99.90;;;;;;4999405;28;20058;-86
2022/07/13 09:26:18;;;;;;;7.60;5.60;;;30.40;99.90;;;;;;5002110;28;20092;-86
2022/07/13 09:28:46;;;;;;;8.43;5.88;;;30.40;99.90;;;;;;4994799;28;20045;-86
2022/07/13 09:31:12;;;;;;;8.43;5.38;;;30.40;99.90;;;;;;5000195;28;20418;-87
2022/07/13 09:33:43;;;;;;;6.30;5.03;;;30.40;99.90;;;;;;5020638;28;20424;-87
2022/07/13 09:36:14;;;;;;;;;;;30.80;99.90;;;;;;5009639;28;20392;-86
2022/07/13 09:38:42;;;;;;;6.97;4.65;;;30.40;99.90;;;;;;5009048;28;20015;-86
2022/07/13 09:41:17;;;;;;;8.95;6.32;;;30.50;99.90;;;;;;5024311;28;20077;-87
2022/07/13 09:46:58;;;;;;;6.72;5.60;;;30.90;99.00;;;;;;5025650;28;20408;-85
2022/07/13 09:49:41;;;;;;;7.28;4.95;;;31.10;99.30;;;;;;4980622;28;20074;-86
2022/07/13 09:52:09;;;;;;;6.70;5.82;;;31.00;99.40;;;;;;4990290;28;20046;-86
2022/07/13 09:54:39;;;;;;;6.95;5.53;;;30.70;99.90;;;;;;4986451;28;20042;-86
2022/07/13 09:57:11;;;;;;;6.97;5.53;;;30.90;99.50;;;;;;5023164;28;20370;-86
2022/07/13 09:59:42;;;;;;;6.53;4.43;;;31.00;99.60;;;;;;5017752;28;20042;-86
2022/07/13 10:02:08;;;;;;;8.88;5.22;;;31.10;98.80;;;;;;4983426;28;20034;-86
2022/07/13 10:04:38;;;;;;;8.52;4.80;;;31.30;99.00;;;;;;4982776;28;20041;-87
2022/07/13 10:07:05;;;;;;;5.57;4.37;;;31.80;98.60;;;;;;4985514;28;20069;-86
2022/07/13 10:09:31;;;;;;;9.80;4.47;;;31.80;96.90;;;;;;5022749;28;20050;-86
2022/07/13 10:12:00;;;;;;;6.05;4.35;;;31.50;97.10;;;;;;5018119;28;20057;-87
2022/07/13 10:14:27;;;;;;;5.13;3.90;;;31.80;97.40;;;;;;4982298;28;20042;-86
2022/07/13 10:17:14;;;;;;;94.95;87.28;;;32.50;96.50;;;;;;5008486;28;20049;-89
2022/07/13 10:19:43;;;;;;;54.65;50.05;;;32.70;95.80;;;;;;4989687;28;20461;-90
2022/07/13 10:22:21;;;;;;;8.18;7.05;;;32.90;94.20;;;;;;4973832;28;20050;-89
2022/07/13 10:24:54;;;;;;;6.78;6.05;;;33.00;91.30;;;;;;5002151;28;20042;-88
2022/07/13 10:27:26;;;;;;;6.65;4.63;;;33.20;91.50;;;;;;4940768;28;20745;-89
2022/07/13 10:30:03;;;;;;;12.65;11.48;;;33.30;93.00;;;;;;5016406;28;20056;-89
2022/07/13 10:32:31;;;;;;;10.80;5.75;;;33.30;90.40;;;;;;5001912;28;20054;-89
2022/07/13 10:35:01;;;;;;;6.57;2.63;;;33.40;89.70;;;;;;5002101;28;20042;-88
2022/07/13 10:37:28;;;;;;;5.05;3.33;;;32.80;83.40;;;;;;5024654;28;20141;-90
2022/07/13 10:40:16;;;;;;;10.00;6.82;;;32.60;76.30;;;;;;5022133;28;20045;-89
2022/07/13 10:42:56;;;;;;;3.65;2.08;;;31.70;72.80;;;;;;5034440;28;20133;-88
2022/07/13 10:45:44;;;;;;;18.20;16.48;;;31.70;75.30;;;;;;4985898;28;20407;-90
2022/07/13 10:48:25;;;;;;;6.45;2.88;;;31.80;74.90;;;;;;5002078;28;20054;-89
2022/07/13 10:50:57;;;;;;;8.10;6.35;;;31.90;77.80;;;;;;4987186;28;20050;-90
2022/07/13 10:53:38;;;;;;;24.25;21.95;;;31.90;76.60;;;;;;4999797;28;20042;-89
2022/07/13 10:56:20;;;;;;;3.58;2.10;;;31.80;78.00;;;;;;5016078;28;20038;-90
2022/07/13 10:58:50;;;;;;;9.57;7.43;;;32.10;73.60;;;;;;5004690;28;20033;-89
2022/07/13 11:01:43;;;;;;;5.53;2.38;;;32.40;72.90;;;;;;5020636;28;20041;-90
2022/07/13 11:04:12;;;;;;;3.28;1.90;;;33.10;73.10;;;;;;5003170;28;20152;-90
2022/07/13 11:06:40;;;;;;;5.00;2.10;;;33.30;67.70;;;;;;5007767;28;20781;-90
2022/07/13 11:09:06;;;;;;;5.97;2.58;;;33.00;66.60;;;;;;4983482;28;20038;-90
2022/07/13 11:11:33;;;;;;;6.05;2.58;;;32.50;66.70;;;;;;4991080;28;20052;-90
2022/07/13 11:13:59;;;;;;;4.00;1.70;;;33.10;68.30;;;;;;4978676;28;20041;-90
2022/07/13 11:16:45;;;;;;;3.03;1.83;;;33.30;63.90;;;;;;4995951;28;20089;-90
2022/07/13 11:19:11;;;;;;;5.63;1.48;;;32.80;61.20;;;;;;5020829;28;20072;-90
2022/07/13 11:22:03;;;;;;;6.20;4.78;;;32.90;62.50;;;;;;5004247;28;20060;-90
2022/07/13 11:27:22;;;;;;;4.38;2.03;;;32.10;60.70;;;;;;5004466;28;20041;-90
2022/07/13 11:29:53;;;;;;;5.05;2.63;;;32.00;62.30;;;;;;5040489;28;20475;-91
2022/07/13 11:32:20;;;;;;;4.55;2.80;;;32.50;62.70;;;;;;5002541;28;20069;-91
2022/07/13 11:34:47;;;;;;;5.40;2.53;;;32.90;62.50;;;;;;4987265;28;20048;-91
2022/07/13 11:37:21;;;;;;;5.47;2.03;;;32.90;63.00;;;;;;4971353;28;20050;-91
2022/07/13 11:39:47;;;;;;;5.63;4.13;;;33.30;62.20;;;;;;5018761;28;20034;-93
2022/07/13 11:42:14;;;;;;;8.90;6.22;;;33.90;60.40;;;;;;4970515;28;20542;-92
2022/07/13 11:44:40;;;;;;;7.20;6.50;;;33.90;58.00;;;;;;4972781;28;20073;-92
2022/07/13 11:47:09;;;;;;;5.43;3.20;;;34.40;56.50;;;;;;5015285;28;20128;-92
2022/07/13 11:49:50;;;;;;;3.58;1.88;;;34.60;57.50;;;;;;5006811;28;20055;-92
2022/07/13 11:52:23;;;;;;;11.50;10.40;;;33.80;53.60;;;;;;5003619;28;20594;-93
2022/07/13 11:54:58;;;;;;;6.30;1.70;;;34.10;56.20;;;;;;5020008;28;20049;-92
2022/07/13 11:57:25;;;;;;;15.35;13.95;;;33.70;54.40;;;;;;5004304;28;20033;-93
2022/07/13 11:59:52;;;;;;;4.82;2.05;;;33.90;55.10;;;;;;5016121;28;20050;-92
2022/07/13 12:02:18;;;;;;;4.10;1.88;;;33.60;53.50;;;;;;4986525;28;20136;-90
2022/07/13 12:04:47;;;;;;;8.23;7.50;;;32.50;52.20;;;;;;4969374;28;20097;-90
2022/07/13 12:07:21;;;;;;;18.92;17.17;;;32.90;52.70;;;;;;4997983;28;20133;-89
2022/07/13 12:09:52;;;;;;;4.55;1.83;;;33.20;52.40;;;;;;4981988;28;20071;-88
2022/07/13 12:12:20;;;;;;;4.60;2.30;;;33.40;52.20;;;;;;4990809;28;20042;-90
2022/07/13 12:14:48;;;;;;;6.05;4.35;;;33.20;52.50;;;;;;5017193;28;20042;-91
2022/07/13 12:17:15;;;;;;;3.78;1.90;;;33.30;53.30;;;;;;5000812;28;20420;-89
2022/07/13 12:19:41;;;;;;;6.50;5.85;;;33.70;53.70;;;;;;5016578;28;20069;-90
2022/07/13 12:22:07;;;;;;;10.27;9.32;;;34.40;52.80;;;;;;4985140;28;20076;-88
2022/07/13 12:24:35;;;;;;;7.53;2.65;;;33.90;53.00;;;;;;5001010;28;20052;-91
2022/07/13 12:27:03;;;;;;;5.22;2.45;;;33.80;52.30;;;;;;4970083;28;20332;-91
2022/07/13 12:29:34;;;;;;;2.92;1.75;;;33.80;54.30;;;;;;5001932;28;20508;-89
2022/07/13 12:32:01;;;;;;;3.90;1.92;;;33.50;52.80;;;;;;4969186;28;20413;-91
2022/07/13 12:34:28;;;;;;;3.97;2.22;;;33.20;53.30;;;;;;5018251;28;20049;-90
2022/07/13 12:36:55;;;;;;;2.95;1.77;;;33.20;53.10;;;;;;4985225;28;20409;-91
2022/07/13 12:39:35;;;;;;;4.68;1.65;;;32.70;54.50;;;;;;5001727;28;20064;-90
2022/07/13 12:42:02;;;;;;;14.05;12.65;;;32.70;54.20;;;;;;4969905;28;20295;-90
2022/07/13 12:44:31;;;;;;;4.25;2.33;;;33.50;55.40;;;;;;5001755;28;20045;-90
2022/07/13 12:47:01;;;;;;;9.73;8.73;;;33.90;54.40;;;;;;4985449;28;20145;-90
2022/07/13 12:49:34;;;;;;;9.73;8.60;;;33.10;52.80;;;;;;4985888;28;20085;-90
2022/07/13 12:52:05;;;;;;;5.50;3.33;;;33.20;53.20;;;;;;5034975;28;20046;-91
2022/07/13 12:54:42;;;;;;;8.88;7.15;;;32.70;53.90;;;;;;5016113;28;20420;-92
2022/07/13 12:57:17;;;;;;;30.08;27.40;;;32.80;53.80;;;;;;5018072;28;20142;-91